Time;durP1;ratioP1;P1;durP2;ratioP2;P2;SDS_P1;SDS_P2;PMS_P1;PMS_P2;Temp;Humidity;BMP_temperature;BMP_pressure;BME280_temperature;BME280_humidity;BME280_pressure;Samples;Min_cycle;Max_cycle;Signal;HPM_P1;HPM_P2
2021/08/10 00:00:05;;;;;;;3.53;1.00;;;;;;;;;;4990436;28;20022;-67
2021/08/10 00:02:31;;;;;;;7.82;1.00;;;;;;;;;;4990507;28;20080;-69
2021/08/10 00:04:57;;;;;;;4.22;1.00;;;;;;;;;;4990206;28;20039;-67
2021/08/10 00:07:23;;;;;;;7.45;0.98;;;;;;;;;;4990170;28;20041;-66
2021/08/10 00:09:49;;;;;;;3.78;1.10;;;;;;;;;;5005413;28;20014;-67
2021/08/10 00:12:15;;;;;;;1.70;0.85;;;;;;;;;;5099853;28;20101;-67
2021/08/10 00:14:41;;;;;;;3.58;0.88;;;;;;;;;;5112854;28;20028;-66
2021/08/10 00:17:07;;;;;;;6.07;1.10;;;;;;;;;;5094713;28;20386;-66
2021/08/10 00:19:33;;;;;;;2.40;0.98;;;;;;;;;;5113029;28;20373;-67
2021/08/10 00:21:59;;;;;;;2.83;1.10;;;;;;;;;;5094766;28;20015;-67
2021/08/10 00:24:25;;;;;;;8.73;0.80;;;;;;;;;;5114461;28;20028;-66
2021/08/10 00:26:51;;;;;;;2.03;1.02;;;;;;;;;;5116786;28;20092;-68
2021/08/10 00:29:17;;;;;;;5.25;1.33;;;;;;;;;;5116733;28;20039;-66
2021/08/10 00:31:43;;;;;;;1.88;0.88;;;;;;;;;;5116762;28;20418;-67
2021/08/10 00:34:09;;;;;;;1.67;0.88;;;;;;;;;;5116654;28;20020;-67
2021/08/10 00:36:38;;;;;;;2.00;0.77;;;;;;;;;;5116582;28;20062;-67
2021/08/10 00:39:05;;;;;;;3.25;0.90;;;;;;;;;;5098443;28;20023;-67
2021/08/10 00:41:32;;;;;;;3.47;0.77;;;;;;;;;;5116540;28;20040;-67
2021/08/10 00:43:58;;;;;;;4.32;1.00;;;;;;;;;;5098137;28;20366;-66
2021/08/10 00:46:24;;;;;;;3.38;1.02;;;;;;;;;;5104758;28;20035;-67
2021/08/10 00:48:50;;;;;;;1.55;0.95;;;;;;;;;;5111544;28;20378;-66
2021/08/10 00:51:16;;;;;;;5.03;1.30;;;;;;;;;;5108423;28;20032;-66
2021/08/10 00:53:42;;;;;;;5.57;1.15;;;;;;;;;;5113533;28;20023;-67
2021/08/10 00:56:09;;;;;;;2.05;0.98;;;;;;;;;;5116268;28;20546;-67
2021/08/10 00:58:35;;;;;;;4.95;0.98;;;;;;;;;;5116141;28;20072;-67
2021/08/10 01:01:01;;;;;;;2.72;1.00;;;;;;;;;;5116101;28;20049;-66
2021/08/10 01:03:27;;;;;;;4.05;0.90;;;;;;;;;;5116222;28;20381;-67
2021/08/10 01:05:53;;;;;;;2.60;0.90;;;;;;;;;;5116014;28;20038;-67
2021/08/10 01:08:34;;;;;;;5.25;1.00;;;;;;;;;;5112704;28;20024;-67
2021/08/10 01:11:19;;;;;;;8.48;0.90;;;;;;;;;;5095119;28;20048;-67
2021/08/10 01:13:49;;;;;;;1.95;0.90;;;;;;;;;;5095619;28;20024;-66
2021/08/10 01:16:19;;;;;;;3.95;1.00;;;;;;;;;;5095247;28;20024;-66
2021/08/10 01:18:56;;;;;;;5.22;0.88;;;;;;;;;;5095393;28;20020;-66
2021/08/10 01:21:25;;;;;;;2.70;1.00;;;;;;;;;;5095268;28;20032;-66
2021/08/10 01:23:53;;;;;;;3.50;1.23;;;;;;;;;;5077083;28;20428;-67
2021/08/10 01:26:19;;;;;;;2.05;1.00;;;;;;;;;;5095060;28;20024;-67
2021/08/10 01:28:51;;;;;;;17.92;1.15;;;;;;;;;;5095249;28;20418;-65
2021/08/10 01:31:17;;;;;;;7.32;1.20;;;;;;;;;;5095038;28;20040;-66
2021/08/10 01:33:47;;;;;;;5.30;1.17;;;;;;;;;;5095006;28;20016;-65
2021/08/10 01:36:15;;;;;;;3.95;1.10;;;;;;;;;;5094373;28;20075;-66
2021/08/10 01:38:43;;;;;;;1.52;0.95;;;;;;;;;;5076877;28;20025;-66
2021/08/10 01:41:11;;;;;;;7.30;0.90;;;;;;;;;;5095130;28;20039;-66
2021/08/10 01:43:38;;;;;;;6.43;1.10;;;;;;;;;;5094855;28;20019;-69
2021/08/10 01:46:05;;;;;;;5.60;0.82;;;;;;;;;;5094875;28;20026;-66
2021/08/10 01:48:31;;;;;;;4.00;1.05;;;;;;;;;;5094706;28;20027;-67
2021/08/10 01:50:57;;;;;;;5.85;0.90;;;;;;;;;;5094648;28;20489;-67
2021/08/10 01:53:24;;;;;;;3.85;0.90;;;;;;;;;;5076427;28;20027;-68
2021/08/10 01:55:50;;;;;;;3.42;1.20;;;;;;;;;;5094734;28;20031;-66
2021/08/10 01:58:16;;;;;;;1.80;0.95;;;;;;;;;;5094517;28;20168;-66
2021/08/10 02:00:45;;;;;;;6.43;0.95;;;;;;;;;;5094533;28;20030;-66
2021/08/10 02:03:13;;;;;;;6.75;1.00;;;;;;;;;;5094504;28;20024;-66
2021/08/10 02:05:40;;;;;;;3.35;1.00;;;;;;;;;;5094666;28;20039;-66
2021/08/10 02:08:07;;;;;;;10.75;1.00;;;;;;;;;;5094415;28;20060;-66
2021/08/10 02:10:33;;;;;;;9.35;1.05;;;;;;;;;;5093953;28;20036;-66
2021/08/10 02:12:59;;;;;;;7.60;1.33;;;;;;;;;;5094162;28;20028;-66
2021/08/10 02:15:26;;;;;;;3.35;1.10;;;;;;;;;;5094234;28;20055;-67
2021/08/10 02:17:51;;;;;;;2.35;1.10;;;;;;;;;;5075936;28;20032;-67
2021/08/10 02:20:18;;;;;;;2.70;1.10;;;;;;;;;;5094177;28;20035;-66
2021/08/10 02:22:46;;;;;;;7.03;1.20;;;;;;;;;;5093870;28;20077;-66
2021/08/10 02:25:13;;;;;;;2.35;0.98;;;;;;;;;;5094046;28;20016;-67
2021/08/10 02:27:46;;;;;;;5.18;0.93;;;;;;;;;;5093997;28;20033;-67
2021/08/10 02:30:12;;;;;;;7.68;1.20;;;;;;;;;;5093906;28;20108;-66
2021/08/10 02:32:40;;;;;;;3.13;1.30;;;;;;;;;;5093751;28;20062;-66
2021/08/10 02:35:07;;;;;;;1.48;0.90;;;;;;;;;;5093590;28;20024;-66
2021/08/10 02:37:33;;;;;;;5.32;1.10;;;;;;;;;;5093844;28;20023;-66
2021/08/10 02:40:01;;;;;;;3.95;1.30;;;;;;;;;;5093640;28;20028;-66
2021/08/10 02:42:27;;;;;;;3.70;1.27;;;;;;;;;;5093794;28;20416;-67
2021/08/10 02:44:55;;;;;;;3.58;1.00;;;;;;;;;;5093966;28;20024;-66
2021/08/10 02:47:21;;;;;;;2.28;0.90;;;;;;;;;;5093375;28;20565;-66
2021/08/10 02:49:47;;;;;;;1.95;1.00;;;;;;;;;;5093409;28;20024;-66
2021/08/10 02:52:13;;;;;;;6.13;1.00;;;;;;;;;;5093326;28;20468;-68
2021/08/10 02:54:40;;;;;;;7.40;1.38;;;;;;;;;;5093475;28;20073;-67
2021/08/10 02:57:09;;;;;;;14.57;1.02;;;;;;;;;;5093526;28;20028;-66
2021/08/10 02:59:39;;;;;;;2.78;1.27;;;;;;;;;;5093448;28;20020;-67
2021/08/10 03:02:21;;;;;;;8.27;1.10;;;;;;;;;;5093594;28;20034;-66
2021/08/10 03:04:56;;;;;;;4.75;1.00;;;;;;;;;;5093151;28;20012;-66
2021/08/10 03:07:22;;;;;;;3.58;1.25;;;;;;;;;;5093450;28;20024;-67
2021/08/10 03:09:51;;;;;;;7.80;1.13;;;;;;;;;;5108735;28;20027;-67
2021/08/10 03:12:18;;;;;;;4.55;1.20;;;;;;;;;;5113227;28;20227;-66
2021/08/10 03:14:44;;;;;;;8.82;1.20;;;;;;;;;;5113624;28;20028;-67
2021/08/10 03:17:11;;;;;;;3.33;1.23;;;;;;;;;;5095442;28;20023;-67
2021/08/10 03:19:39;;;;;;;5.00;1.23;;;;;;;;;;5113661;28;20020;-66
2021/08/10 03:22:05;;;;;;;4.50;1.00;;;;;;;;;;5113445;28;20051;-66
2021/08/10 03:24:31;;;;;;;8.20;1.20;;;;;;;;;;5113343;28;20058;-66
2021/08/10 03:27:00;;;;;;;6.15;1.10;;;;;;;;;;5113554;28;20047;-66
2021/08/10 03:29:27;;;;;;;5.60;1.83;;;;;;;;;;5113554;28;20035;-67
2021/08/10 03:31:53;;;;;;;4.35;1.20;;;;;;;;;;5107552;28;20036;-66
2021/08/10 03:34:19;;;;;;;7.55;1.00;;;;;;;;;;5092586;28;20111;-66
2021/08/10 03:36:48;;;;;;;11.95;1.10;;;;;;;;;;5074486;28;20436;-66
2021/08/10 03:39:14;;;;;;;10.98;1.30;;;;;;;;;;5092826;28;20111;-66
2021/08/10 03:41:40;;;;;;;1.88;1.00;;;;;;;;;;5092684;28;20120;-67
2021/08/10 03:44:06;;;;;;;1.85;1.00;;;;;;;;;;5092761;28;20080;-67
2021/08/10 03:46:32;;;;;;;3.78;1.05;;;;;;;;;;5092764;28;20020;-67
2021/08/10 03:48:59;;;;;;;5.72;1.20;;;;;;;;;;5092972;28;20042;-66
2021/08/10 03:51:25;;;;;;;6.03;1.10;;;;;;;;;;5092847;28;20395;-66
2021/08/10 03:53:51;;;;;;;2.65;1.10;;;;;;;;;;5074580;28;20025;-67
2021/08/10 03:56:17;;;;;;;10.82;1.30;;;;;;;;;;5092673;28;20035;-67
2021/08/10 03:58:48;;;;;;;6.80;1.35;;;;;;;;;;5093100;28;20027;-67
2021/08/10 04:01:14;;;;;;;22.50;1.10;;;;;;;;;;5096969;28;20024;-65
2021/08/10 04:03:40;;;;;;;8.00;1.20;;;;;;;;;;5078571;28;20025;-66
2021/08/10 04:06:07;;;;;;;13.70;1.30;;;;;;;;;;5096465;28;20048;-67
2021/08/10 04:08:33;;;;;;;8.70;1.38;;;;;;;;;;5101557;28;20018;-66
2021/08/10 04:10:59;;;;;;;5.93;1.60;;;;;;;;;;5116661;28;20047;-67
2021/08/10 04:13:25;;;;;;;5.18;1.30;;;;;;;;;;5117236;28;20020;-66
2021/08/10 04:15:51;;;;;;;6.20;1.17;;;;;;;;;;5116903;28;20015;-67
2021/08/10 04:18:19;;;;;;;6.95;1.20;;;;;;;;;;5116712;28;20023;-67
2021/08/10 04:20:48;;;;;;;3.58;1.40;;;;;;;;;;5116758;28;20119;-67
2021/08/10 04:23:14;;;;;;;4.15;1.50;;;;;;;;;;5116844;28;20023;-67
2021/08/10 04:25:40;;;;;;;7.95;1.30;;;;;;;;;;5116738;28;20034;-67
2021/08/10 04:28:06;;;;;;;9.80;1.35;;;;;;;;;;5116527;28;20032;-66
2021/08/10 04:30:32;;;;;;;12.55;2.05;;;;;;;;;;5116714;28;20032;-66
2021/08/10 04:32:58;;;;;;;9.25;1.52;;;;;;;;;;5102097;28;20383;-66
2021/08/10 04:35:25;;;;;;;17.95;2.28;;;;;;;;;;5096198;28;20051;-68
2021/08/10 04:37:51;;;;;;;12.02;1.33;;;;;;;;;;5096220;28;20035;-65
2021/08/10 04:40:17;;;;;;;11.35;1.70;;;;;;;;;;5095951;28;20020;-69
2021/08/10 04:42:43;;;;;;;4.07;1.30;;;;;;;;;;5095936;28;20030;-68
2021/08/10 04:45:10;;;;;;;5.47;1.40;;;;;;;;;;5095917;28;20032;-66
2021/08/10 04:47:36;;;;;;;13.32;1.75;;;;;;;;;;5095984;28;20078;-65
2021/08/10 04:50:02;;;;;;;6.85;1.40;;;;;;;;;;5095701;28;20475;-67
2021/08/10 04:52:28;;;;;;;10.27;1.63;;;;;;;;;;5095950;28;20076;-64
2021/08/10 04:54:57;;;;;;;28.73;4.03;;;;;;;;;;5095649;28;20028;-67
2021/08/10 04:57:23;;;;;;;13.25;1.58;;;;;;;;;;5095705;28;20016;-66
2021/08/10 04:59:50;;;;;;;12.48;2.00;;;;;;;;;;5095441;28;20028;-66
2021/08/10 05:02:16;;;;;;;8.80;2.05;;;;;;;;;;5095358;28;20436;-67
2021/08/10 05:04:43;;;;;;;15.82;2.60;;;;;;;;;;5095470;28;20104;-70
2021/08/10 05:07:09;;;;;;;6.40;2.30;;;;;;;;;;5095435;28;20047;-67
2021/08/10 05:09:35;;;;;;;13.43;2.17;;;;;;;;;;5109002;28;20109;-67
2021/08/10 05:12:01;;;;;;;9.85;1.95;;;;;;;;;;5114810;28;20047;-68
2021/08/10 05:14:27;;;;;;;10.23;2.05;;;;;;;;;;5115733;28;20030;-66
2021/08/10 05:16:53;;;;;;;10.20;1.80;;;;;;;;;;5101487;28;20047;-66
2021/08/10 05:19:19;;;;;;;11.30;2.08;;;;;;;;;;5097644;28;20029;-69
2021/08/10 05:21:45;;;;;;;10.90;2.20;;;;;;;;;;5090409;28;20474;-70
2021/08/10 05:24:11;;;;;;;27.17;2.92;;;;;;;;;;5097672;28;20028;-68
2021/08/10 05:26:37;;;;;;;13.57;2.55;;;;;;;;;;5103665;28;20020;-68
2021/08/10 05:29:03;;;;;;;9.25;2.80;;;;;;;;;;5099705;28;20054;-71
2021/08/10 05:31:29;;;;;;;13.57;2.88;;;;;;;;;;5106255;28;20038;-69
2021/08/10 05:33:55;;;;;;;8.38;2.65;;;;;;;;;;5107349;28;20452;-67
2021/08/10 05:36:21;;;;;;;10.98;2.42;;;;;;;;;;5103686;28;20027;-67
2021/08/10 05:38:49;;;;;;;8.35;2.83;;;;;;;;;;5077207;28;20028;-68
2021/08/10 05:41:19;;;;;;;10.02;3.13;;;;;;;;;;5084323;28;20024;-67
2021/08/10 05:43:45;;;;;;;7.10;2.45;;;;;;;;;;5102852;28;20382;-67
2021/08/10 05:46:11;;;;;;;13.60;3.17;;;;;;;;;;5087463;28;20517;-68
2021/08/10 05:48:37;;;;;;;6.78;2.70;;;;;;;;;;5112480;28;20020;-69
2021/08/10 05:51:06;;;;;;;10.50;2.63;;;;;;;;;;5099614;28;20036;-68
2021/08/10 05:53:33;;;;;;;11.63;3.00;;;;;;;;;;5094659;28;20106;-68
2021/08/10 05:55:59;;;;;;;10.25;3.03;;;;;;;;;;5076225;28;20449;-68
2021/08/10 05:58:26;;;;;;;9.93;3.15;;;;;;;;;;5114619;28;20068;-68
2021/08/10 06:00:52;;;;;;;14.05;3.63;;;;;;;;;;5092137;28;20024;-68
2021/08/10 06:03:18;;;;;;;13.82;3.00;;;;;;;;;;5106748;28;20378;-68
2021/08/10 06:05:44;;;;;;;12.38;3.20;;;;;;;;;;5112097;28;20480;-68
2021/08/10 06:08:10;;;;;;;8.50;3.05;;;;;;;;;;5103103;28;20019;-69
2021/08/10 06:10:36;;;;;;;15.27;3.45;;;;;;;;;;5079525;28;20031;-68
2021/08/10 06:13:02;;;;;;;16.17;4.47;;;;;;;;;;5102991;28;20551;-66
2021/08/10 06:15:28;;;;;;;13.55;3.47;;;;;;;;;;5080375;28;20058;-66
2021/08/10 06:17:54;;;;;;;8.50;3.70;;;;;;;;;;5094409;28;20028;-67
2021/08/10 06:20:21;;;;;;;17.33;4.43;;;;;;;;;;5094019;28;20454;-66
2021/08/10 06:22:47;;;;;;;17.77;4.53;;;;;;;;;;5093881;28;20024;-68
2021/08/10 06:25:13;;;;;;;20.15;4.65;;;;;;;;;;5075767;28;20379;-66
2021/08/10 06:27:39;;;;;;;12.02;4.63;;;;;;;;;;5094239;28;20039;-64
2021/08/10 06:30:06;;;;;;;17.05;5.20;;;;;;;;;;5094191;28;20020;-65
2021/08/10 06:32:31;;;;;;;16.33;4.57;;;;;;;;;;5094169;28;20111;-67
2021/08/10 06:34:58;;;;;;;10.80;3.85;;;;;;;;;;5075543;28;20132;-68
2021/08/10 06:37:24;;;;;;;18.02;4.10;;;;;;;;;;5093954;28;20085;-64
2021/08/10 06:39:50;;;;;;;26.58;4.35;;;;;;;;;;5093508;28;20067;-65
2021/08/10 06:42:21;;;;;;;17.88;4.30;;;;;;;;;;5093844;28;20379;-66
2021/08/10 06:44:47;;;;;;;16.35;3.92;;;;;;;;;;5093393;28;20024;-70
2021/08/10 06:47:13;;;;;;;20.73;4.25;;;;;;;;;;5093441;28;20024;-66
2021/08/10 06:49:39;;;;;;;15.05;3.30;;;;;;;;;;5093578;28;20024;-69
2021/08/10 06:52:06;;;;;;;16.20;4.20;;;;;;;;;;5093463;28;20036;-69
2021/08/10 06:54:32;;;;;;;20.55;3.65;;;;;;;;;;5093599;28;20016;-69
2021/08/10 06:57:04;;;;;;;13.10;3.35;;;;;;;;;;5093357;28;20027;-69
2021/08/10 06:59:30;;;;;;;13.07;4.30;;;;;;;;;;5093715;28;20027;-71
2021/08/10 07:01:56;;;;;;;11.73;3.83;;;;;;;;;;5093575;28;20256;-70
2021/08/10 07:04:22;;;;;;;13.85;4.00;;;;;;;;;;5093138;28;20031;-70
2021/08/10 07:06:48;;;;;;;12.40;3.75;;;;;;;;;;5093383;28;20309;-69
2021/08/10 07:09:15;;;;;;;9.20;2.97;;;;;;;;;;5093234;28;20058;-68
2021/08/10 07:11:42;;;;;;;9.50;3.28;;;;;;;;;;5093093;28;20078;-68
2021/08/10 07:14:11;;;;;;;12.63;3.67;;;;;;;;;;5093128;28;20020;-68
2021/08/10 07:16:38;;;;;;;9.82;3.58;;;;;;;;;;5093381;28;20475;-68
2021/08/10 07:19:04;;;;;;;8.98;3.33;;;;;;;;;;5092797;28;20028;-69
2021/08/10 07:21:30;;;;;;;9.10;3.42;;;;;;;;;;5074918;28;20020;-69
2021/08/10 07:23:56;;;;;;;7.07;3.35;;;;;;;;;;5093334;28;20028;-69
2021/08/10 07:26:21;;;;;;;10.38;3.17;;;;;;;;;;5093056;28;20080;-69
2021/08/10 07:28:47;;;;;;;9.35;2.97;;;;;;;;;;5093239;28;20660;-69
2021/08/10 07:31:13;;;;;;;10.85;3.80;;;;;;;;;;5093384;28;20157;-70
2021/08/10 07:33:39;;;;;;;6.90;3.45;;;;;;;;;;5092706;28;20024;-70
2021/08/10 07:36:05;;;;;;;10.07;4.07;;;;;;;;;;5074989;28;20432;-68
2021/08/10 07:38:31;;;;;;;6.13;3.40;;;;;;;;;;5093200;28;20027;-71
2021/08/10 07:40:57;;;;;;;5.35;2.70;;;;;;;;;;5093022;28;20028;-70
2021/08/10 07:43:23;;;;;;;7.70;3.38;;;;;;;;;;5074842;28;20032;-69
2021/08/10 07:45:49;;;;;;;8.40;3.45;;;;;;;;;;5092908;28;20043;-69
2021/08/10 07:48:16;;;;;;;6.03;3.03;;;;;;;;;;5093098;28;20027;-69
2021/08/10 07:50:42;;;;;;;9.40;3.45;;;;;;;;;;5074840;28;20036;-69
2021/08/10 07:53:08;;;;;;;8.25;3.00;;;;;;;;;;5092862;28;20102;-69
2021/08/10 07:55:35;;;;;;;6.88;2.97;;;;;;;;;;5092740;28;20099;-69
2021/08/10 07:58:01;;;;;;;8.65;3.05;;;;;;;;;;5092913;28;20023;-67
2021/08/10 08:00:27;;;;;;;7.38;3.15;;;;;;;;;;5074560;28;20039;-68
2021/08/10 08:02:53;;;;;;;8.63;3.20;;;;;;;;;;5092644;28;20085;-68
2021/08/10 08:05:19;;;;;;;8.13;2.88;;;;;;;;;;5093135;28;20089;-70
2021/08/10 08:07:45;;;;;;;11.35;3.58;;;;;;;;;;5074568;28;20020;-70
2021/08/10 08:10:11;;;;;;;13.55;3.08;;;;;;;;;;5074490;28;20074;-71
2021/08/10 08:12:38;;;;;;;8.10;3.10;;;;;;;;;;5092110;28;20043;-69
2021/08/10 08:15:04;;;;;;;11.23;3.08;;;;;;;;;;5074078;28;20020;-67
2021/08/10 08:17:30;;;;;;;11.00;3.45;;;;;;;;;;5091375;28;20030;-68
2021/08/10 08:19:56;;;;;;;10.80;3.05;;;;;;;;;;5092115;28;20028;-67
2021/08/10 08:22:22;;;;;;;11.77;3.00;;;;;;;;;;5074423;28;20032;-67
2021/08/10 08:24:48;;;;;;;7.95;3.10;;;;;;;;;;5092506;28;20507;-68
2021/08/10 08:27:14;;;;;;;8.13;3.20;;;;;;;;;;5074227;28;20122;-67
2021/08/10 08:29:40;;;;;;;7.50;2.90;;;;;;;;;;5092340;28;20036;-67
2021/08/10 08:32:07;;;;;;;15.43;3.58;;;;;;;;;;5092146;28;20032;-67
2021/08/10 08:34:33;;;;;;;7.85;3.22;;;;;;;;;;5092161;28;20453;-65
2021/08/10 08:36:59;;;;;;;12.32;3.35;;;;;;;;;;5092272;28;20115;-66
2021/08/10 08:39:25;;;;;;;9.75;3.13;;;;;;;;;;5092396;28;20095;-68
2021/08/10 08:41:51;;;;;;;9.77;3.22;;;;;;;;;;5073939;28;20020;-67
2021/08/10 08:44:17;;;;;;;8.80;3.15;;;;;;;;;;5092350;28;20024;-66
2021/08/10 08:46:45;;;;;;;7.95;3.15;;;;;;;;;;5093989;28;20091;-66
2021/08/10 08:49:13;;;;;;;11.23;2.88;;;;;;;;;;5095970;28;20035;-67
2021/08/10 08:51:39;;;;;;;14.93;3.10;;;;;;;;;;5095818;28;20063;-66
2021/08/10 08:54:07;;;;;;;13.43;3.05;;;;;;;;;;5096180;28;20361;-69
2021/08/10 08:56:33;;;;;;;10.48;3.25;;;;;;;;;;5095956;28;20077;-69
2021/08/10 08:58:59;;;;;;;9.57;2.88;;;;;;;;;;5096284;28;20059;-69
2021/08/10 09:01:25;;;;;;;13.60;2.92;;;;;;;;;;5077858;28;20058;-71
2021/08/10 09:03:51;;;;;;;7.60;2.83;;;;;;;;;;5095917;28;20039;-71
2021/08/10 09:06:18;;;;;;;9.68;2.80;;;;;;;;;;5095976;28;20045;-68
2021/08/10 09:08:46;;;;;;;10.98;2.65;;;;;;;;;;5102520;28;20027;-70
2021/08/10 09:11:19;;;;;;;10.15;2.97;;;;;;;;;;5115951;28;20040;-70
2021/08/10 09:13:57;;;;;;;15.35;3.25;;;;;;;;;;5116509;28;20069;-70
2021/08/10 09:16:23;;;;;;;18.63;2.92;;;;;;;;;;5116462;28;20024;-71
2021/08/10 09:18:50;;;;;;;19.95;3.08;;;;;;;;;;5097825;28;20024;-70
2021/08/10 09:21:17;;;;;;;14.00;3.03;;;;;;;;;;5116347;28;20015;-69
2021/08/10 09:23:44;;;;;;;12.07;2.65;;;;;;;;;;5115864;28;20101;-70
2021/08/10 09:26:10;;;;;;;20.67;3.10;;;;;;;;;;5097534;28;20496;-69
2021/08/10 09:28:37;;;;;;;22.30;3.95;;;;;;;;;;5115489;28;20055;-70
2021/08/10 09:31:23;;;;;;;14.27;3.00;;;;;;;;;;5115705;28;20104;-71
2021/08/10 09:33:49;;;;;;;17.58;3.70;;;;;;;;;;5075109;28;20094;-68
2021/08/10 09:36:21;;;;;;;15.43;3.88;;;;;;;;;;5074769;28;20025;-67
2021/08/10 09:38:48;;;;;;;12.25;3.13;;;;;;;;;;5093806;28;20095;-69
2021/08/10 09:41:14;;;;;;;18.17;3.90;;;;;;;;;;5076746;28;20036;-68
2021/08/10 09:43:41;;;;;;;13.10;3.13;;;;;;;;;;5094637;28;20023;-68
2021/08/10 09:46:14;;;;;;;13.45;3.58;;;;;;;;;;5094899;28;20028;-69
2021/08/10 09:48:41;;;;;;;14.82;3.40;;;;;;;;;;5094832;28;20390;-68
2021/08/10 09:51:08;;;;;;;10.57;3.10;;;;;;;;;;5094671;28;20063;-68
2021/08/10 09:53:34;;;;;;;12.30;3.60;;;;;;;;;;5076235;28;20479;-68
2021/08/10 09:56:00;;;;;;;7.85;3.13;;;;;;;;;;5094517;28;20031;-68
2021/08/10 09:58:26;;;;;;;12.07;3.47;;;;;;;;;;5093330;28;20099;-67
2021/08/10 10:00:54;;;;;;;9.20;3.28;;;;;;;;;;5094785;28;20138;-67
2021/08/10 10:03:28;;;;;;;12.60;3.10;;;;;;;;;;5104515;28;20459;-67
2021/08/10 10:05:54;;;;;;;9.55;3.42;;;;;;;;;;5102478;28;20027;-64
2021/08/10 10:08:21;;;;;;;12.57;2.92;;;;;;;;;;5102305;28;20024;-66
2021/08/10 10:10:48;;;;;;;11.00;3.67;;;;;;;;;;5104401;28;20024;-67
2021/08/10 10:13:17;;;;;;;12.13;3.05;;;;;;;;;;5067333;28;20403;-67
2021/08/10 10:15:44;;;;;;;14.45;3.20;;;;;;;;;;4994774;28;20034;-68
2021/08/10 10:18:11;;;;;;;12.43;3.42;;;;;;;;;;4999848;28;20036;-68
2021/08/10 10:20:38;;;;;;;11.05;3.33;;;;;;;;;;5000342;28;20470;-67
2021/08/10 10:23:05;;;;;;;20.55;3.60;;;;;;;;;;4999956;28;20533;-67
2021/08/10 10:25:32;;;;;;;25.73;3.42;;;;;;;;;;5000369;28;20099;-68
2021/08/10 10:27:59;;;;;;;20.63;4.22;;;;;;;;;;5000515;28;20022;-67
2021/08/10 10:30:26;;;;;;;14.55;3.45;;;;;;;;;;4999510;28;20025;-67
2021/08/10 10:32:52;;;;;;;12.88;3.45;;;;;;;;;;4996996;28;20053;-66
2021/08/10 10:35:18;;;;;;;13.05;4.05;;;;;;;;;;5001706;28;20030;-66
2021/08/10 10:37:45;;;;;;;13.77;3.90;;;;;;;;;;5005441;28;20343;-66
2021/08/10 10:40:11;;;;;;;13.65;3.63;;;;;;;;;;5000838;28;20098;-66
2021/08/10 10:42:38;;;;;;;11.50;3.28;;;;;;;;;;5005043;28;20026;-66
2021/08/10 10:45:04;;;;;;;8.55;3.50;;;;;;;;;;4999152;28;20458;-66
2021/08/10 10:47:34;;;;;;;12.77;4.03;;;;;;;;;;4999207;28;20057;-66
2021/08/10 10:50:00;;;;;;;12.85;3.35;;;;;;;;;;5002184;28;20022;-67
2021/08/10 10:52:31;;;;;;;11.00;3.22;;;;;;;;;;5000896;28;20048;-66
2021/08/10 10:54:57;;;;;;;8.65;3.33;;;;;;;;;;5001761;28;20037;-66
2021/08/10 10:57:29;;;;;;;7.55;3.50;;;;;;;;;;4998977;28;20089;-66
2021/08/10 11:00:15;;;;;;;7.45;3.30;;;;;;;;;;5069030;28;20030;-66
2021/08/10 11:02:42;;;;;;;9.57;3.35;;;;;;;;;;5002700;28;20022;-66
2021/08/10 11:05:08;;;;;;;13.85;3.25;;;;;;;;;;5005021;28;20025;-66
2021/08/10 11:07:38;;;;;;;10.18;3.83;;;;;;;;;;4999961;28;20458;-65
2021/08/10 11:10:10;;;;;;;26.17;3.50;;;;;;;;;;5007687;28;20066;-66
2021/08/10 11:12:44;;;;;;;16.35;3.83;;;;;;;;;;5068579;28;20556;-67
2021/08/10 11:15:11;;;;;;;7.20;3.55;;;;;;;;;;4994287;28;20505;-67
2021/08/10 11:17:37;;;;;;;9.80;3.55;;;;;;;;;;4990968;28;20022;-67
2021/08/10 11:20:23;;;;;;;7.93;3.20;;;;;;;;;;4991050;28;20022;-67
2021/08/10 11:22:49;;;;;;;11.60;3.97;;;;;;;;;;4990887;28;20047;-68
2021/08/10 11:25:25;;;;;;;9.75;3.60;;;;;;;;;;4990645;28;20105;-68
2021/08/10 11:27:52;;;;;;;9.02;3.50;;;;;;;;;;4990882;28;20026;-68
2021/08/10 11:30:20;;;;;;;9.52;4.07;;;;;;;;;;5057919;28;20026;-70
2021/08/10 11:32:49;;;;;;;8.32;3.20;;;;;;;;;;4990527;28;20026;-69
2021/08/10 11:35:35;;;;;;;10.15;3.45;;;;;;;;;;5057952;28;20420;-68
2021/08/10 11:38:12;;;;;;;7.95;3.70;;;;;;;;;;4990654;28;20108;-68
2021/08/10 11:40:57;;;;;;;8.98;3.50;;;;;;;;;;4990620;28;20033;-67
2021/08/10 11:43:42;;;;;;;7.72;3.50;;;;;;;;;;5058166;28;20442;-68
2021/08/10 11:46:13;;;;;;;13.52;4.32;;;;;;;;;;4990784;28;20054;-67
2021/08/10 11:48:49;;;;;;;10.80;4.03;;;;;;;;;;4990942;28;20453;-67
2021/08/10 11:51:19;;;;;;;29.00;3.58;;;;;;;;;;4990759;28;20038;-65
2021/08/10 11:53:45;;;;;;;13.35;3.70;;;;;;;;;;4990981;28;20023;-67
2021/08/10 11:56:29;;;;;;;24.15;3.72;;;;;;;;;;4998419;28;20035;-66
2021/08/10 11:58:57;;;;;;;14.85;3.90;;;;;;;;;;4998530;28;20037;-66
2021/08/10 12:01:23;;;;;;;9.30;3.67;;;;;;;;;;5003066;28;20022;-65
2021/08/10 12:03:49;;;;;;;16.40;4.00;;;;;;;;;;5003000;28;20030;-65
2021/08/10 12:06:15;;;;;;;8.50;3.47;;;;;;;;;;4998230;28;20041;-66
2021/08/10 12:08:42;;;;;;;13.63;3.92;;;;;;;;;;4998925;28;20026;-66
2021/08/10 12:11:08;;;;;;;13.48;3.45;;;;;;;;;;5073739;28;20086;-66
2021/08/10 12:13:34;;;;;;;10.20;3.72;;;;;;;;;;5103495;28;20039;-66
2021/08/10 12:16:00;;;;;;;11.55;4.00;;;;;;;;;;5112725;28;20026;-64
2021/08/10 12:18:26;;;;;;;15.95;4.05;;;;;;;;;;5112796;28;20535;-67
2021/08/10 12:21:03;;;;;;;28.27;4.32;;;;;;;;;;5096831;28;20374;-70
2021/08/10 12:23:49;;;;;;;11.70;4.07;;;;;;;;;;5098671;28;20031;-70
2021/08/10 12:26:17;;;;;;;14.27;3.30;;;;;;;;;;5116973;28;20022;-68
2021/08/10 12:29:01;;;;;;;15.00;3.92;;;;;;;;;;5116723;28;20030;-67
2021/08/10 12:31:29;;;;;;;9.82;3.15;;;;;;;;;;5114652;28;20112;-69
2021/08/10 12:33:56;;;;;;;9.00;3.40;;;;;;;;;;5096628;28;20016;-70
2021/08/10 12:36:23;;;;;;;11.02;3.55;;;;;;;;;;5078323;28;20020;-68
2021/08/10 12:38:50;;;;;;;7.30;3.13;;;;;;;;;;5096531;28;20028;-69
2021/08/10 12:41:17;;;;;;;8.63;3.00;;;;;;;;;;5096501;28;20442;-67
2021/08/10 12:43:48;;;;;;;7.72;2.97;;;;;;;;;;5096475;28;20024;-69
2021/08/10 12:46:33;;;;;;;7.03;3.08;;;;;;;;;;5096445;28;20056;-69
2021/08/10 12:49:10;;;;;;;11.75;3.10;;;;;;;;;;5077820;28;20256;-66
2021/08/10 12:51:52;;;;;;;10.45;3.13;;;;;;;;;;5095956;28;20040;-67
2021/08/10 12:54:18;;;;;;;5.95;2.85;;;;;;;;;;5096059;28;20333;-69
2021/08/10 12:56:44;;;;;;;7.45;3.13;;;;;;;;;;5096020;28;20487;-69
2021/08/10 12:59:10;;;;;;;9.35;3.13;;;;;;;;;;5077675;28;20429;-69
2021/08/10 13:01:40;;;;;;;6.47;3.17;;;;;;;;;;5095513;28;20053;-67
2021/08/10 13:04:09;;;;;;;8.00;3.33;;;;;;;;;;5095204;28;20020;-70
2021/08/10 13:06:36;;;;;;;11.82;3.42;;;;;;;;;;5095485;28;20028;-69
2021/08/10 13:09:02;;;;;;;10.68;3.42;;;;;;;;;;5104720;28;20038;-69
2021/08/10 13:11:28;;;;;;;9.65;3.20;;;;;;;;;;5115795;28;20047;-70
2021/08/10 13:14:04;;;;;;;9.20;3.15;;;;;;;;;;5115734;28;20355;-70
2021/08/10 13:16:38;;;;;;;11.77;3.47;;;;;;;;;;5116443;28;20024;-69
2021/08/10 13:19:10;;;;;;;8.05;3.63;;;;;;;;;;5115825;28;20495;-70
2021/08/10 13:21:45;;;;;;;10.52;3.83;;;;;;;;;;5097894;28;20066;-70
2021/08/10 13:24:11;;;;;;;8.77;3.45;;;;;;;;;;5115828;28;20023;-69
2021/08/10 13:26:55;;;;;;;10.93;3.85;;;;;;;;;;5115789;28;20019;-70
2021/08/10 13:29:35;;;;;;;9.82;3.90;;;;;;;;;;5097648;28;20023;-69
2021/08/10 13:32:01;;;;;;;13.85;4.32;;;;;;;;;;5107833;28;20036;-69
2021/08/10 13:34:43;;;;;;;16.50;4.70;;;;;;;;;;5095109;28;20099;-71
2021/08/10 13:37:09;;;;;;;10.60;4.20;;;;;;;;;;5094990;28;20119;-68
2021/08/10 13:39:38;;;;;;;10.48;4.45;;;;;;;;;;5076897;28;20055;-70
2021/08/10 13:42:04;;;;;;;10.93;3.75;;;;;;;;;;5094962;28;20031;-69
2021/08/10 13:44:30;;;;;;;15.10;4.47;;;;;;;;;;5094805;28;20028;-70
2021/08/10 13:46:56;;;;;;;9.52;4.15;;;;;;;;;;5094814;28;20077;-68
2021/08/10 13:49:22;;;;;;;11.77;4.20;;;;;;;;;;5094725;28;20103;-67
2021/08/10 13:51:48;;;;;;;8.07;3.88;;;;;;;;;;5094771;28;20711;-68
2021/08/10 13:54:14;;;;;;;11.32;4.30;;;;;;;;;;5094767;28;20022;-69
2021/08/10 13:56:40;;;;;;;11.82;3.85;;;;;;;;;;5094829;28;20059;-69
2021/08/10 13:59:07;;;;;;;10.65;4.20;;;;;;;;;;5094461;28;20053;-68
2021/08/10 14:01:56;;;;;;;12.40;3.53;;;;;;;;;;5094794;28;20110;-68
2021/08/10 14:04:20;;;;;;;10.32;3.55;;;;;;;;;;5094070;28;20105;-69
2021/08/10 14:06:46;;;;;;;9.38;3.20;;;;;;;;;;5094669;28;20027;-69
2021/08/10 14:09:12;;;;;;;9.52;3.92;;;;;;;;;;5105059;28;20023;-68
2021/08/10 14:11:39;;;;;;;7.57;3.53;;;;;;;;;;5114750;28;20073;-67
2021/08/10 14:14:05;;;;;;;6.38;4.03;;;;;;;;;;5114574;28;20370;-69
2021/08/10 14:16:31;;;;;;;8.90;3.95;;;;;;;;;;5114781;28;20031;-69
2021/08/10 14:18:57;;;;;;;7.93;3.35;;;;;;;;;;5114599;28;20076;-69
2021/08/10 14:21:23;;;;;;;7.97;3.20;;;;;;;;;;5114537;28;20099;-72
2021/08/10 14:23:49;;;;;;;11.40;3.58;;;;;;;;;;5114313;28;20099;-70
2021/08/10 14:26:14;;;;;;;7.03;3.53;;;;;;;;;;5114158;28;20389;-68
2021/08/10 14:28:41;;;;;;;9.40;3.75;;;;;;;;;;5096043;28;20024;-69
2021/08/10 14:31:12;;;;;;;14.55;4.13;;;;;;;;;;5114312;28;20028;-69
2021/08/10 14:33:38;;;;;;;12.70;4.00;;;;;;;;;;5073815;28;20051;-69
2021/08/10 14:36:04;;;;;;;8.77;3.90;;;;;;;;;;5074288;28;20016;-69
2021/08/10 14:38:31;;;;;;;8.70;4.22;;;;;;;;;;5073493;28;20059;-69
2021/08/10 14:40:57;;;;;;;10.18;4.13;;;;;;;;;;5073751;28;20062;-69